sensor_id;sensor_type;location;lat;lon;timestamp;temperature;humidity
65752;DHT22;52486;51.098;13.770;2024-02-21T00:01:06;22.40;64.50
65752;DHT22;52486;51.098;13.770;2024-02-21T00:03:32;22.40;64.80
65752;DHT22;52486;51.098;13.770;2024-02-21T00:05:57;22.10;63.80
65752;DHT22;52486;51.098;13.770;2024-02-21T00:08:23;22.00;64.50
65752;DHT22;52486;51.098;13.770;2024-02-21T00:10:48;22.10;64.60
65752;DHT22;52486;51.098;13.770;2024-02-21T00:13:14;22.10;64.40
65752;DHT22;52486;51.098;13.770;2024-02-21T00:15:40;22.10;64.70
65752;DHT22;52486;51.098;13.770;2024-02-21T00:18:05;23.00;65.20
65752;DHT22;52486;51.098;13.770;2024-02-21T00:20:31;21.90;64.60
65752;DHT22;52486;51.098;13.770;2024-02-21T00:22:56;22.30;65.60
65752;DHT22;52486;51.098;13.770;2024-02-21T00:25:22;21.90;64.60
65752;DHT22;52486;51.098;13.770;2024-02-21T00:27:47;22.40;65.00
65752;DHT22;52486;51.098;13.770;2024-02-21T00:30:13;22.90;65.20
65752;DHT22;52486;51.098;13.770;2024-02-21T00:32:38;21.90;64.60
65752;DHT22;52486;51.098;13.770;2024-02-21T00:35:04;21.90;63.90
65752;DHT22;52486;51.098;13.770;2024-02-21T00:37:30;21.90;64.80
65752;DHT22;52486;51.098;13.770;2024-02-21T00:39:56;21.80;64.40
65752;DHT22;52486;51.098;13.770;2024-02-21T00:42:21;21.80;64.60
65752;DHT22;52486;51.098;13.770;2024-02-21T00:44:47;23.80;65.70
65752;DHT22;52486;51.098;13.770;2024-02-21T00:47:12;22.00;64.10
65752;DHT22;52486;51.098;13.770;2024-02-21T00:49:38;23.80;65.80
65752;DHT22;52486;51.098;13.770;2024-02-21T00:52:03;21.90;64.60
65752;DHT22;52486;51.098;13.770;2024-02-21T00:54:29;22.00;64.70
65752;DHT22;52486;51.098;13.770;2024-02-21T00:56:54;21.90;64.60
65752;DHT22;52486;51.098;13.770;2024-02-21T00:59:20;21.60;64.50
65752;DHT22;52486;51.098;13.770;2024-02-21T01:01:45;21.90;64.80
65752;DHT22;52486;51.098;13.770;2024-02-21T01:04:11;22.70;64.50
65752;DHT22;52486;51.098;13.770;2024-02-21T01:06:37;21.90;64.30
65752;DHT22;52486;51.098;13.770;2024-02-21T01:09:02;21.80;64.00
65752;DHT22;52486;51.098;13.770;2024-02-21T01:11:28;22.00;64.10
65752;DHT22;52486;51.098;13.770;2024-02-21T01:13:53;21.90;64.80
65752;DHT22;52486;51.098;13.770;2024-02-21T01:16:20;22.00;64.70
65752;DHT22;52486;51.098;13.770;2024-02-21T01:18:45;22.00;64.80
65752;DHT22;52486;51.098;13.770;2024-02-21T01:21:11;22.70;65.30
65752;DHT22;52486;51.098;13.770;2024-02-21T01:23:37;21.80;64.90
65752;DHT22;52486;51.098;13.770;2024-02-21T01:26:02;22.00;64.60
65752;DHT22;52486;51.098;13.770;2024-02-21T01:28:28;22.00;64.50
65752;DHT22;52486;51.098;13.770;2024-02-21T01:30:54;21.90;64.90
65752;DHT22;52486;51.098;13.770;2024-02-21T01:33:21;21.40;64.50
65752;DHT22;52486;51.098;13.770;2024-02-21T01:35:46;21.90;64.80
65752;DHT22;52486;51.098;13.770;2024-02-21T01:38:12;21.90;64.90
65752;DHT22;52486;51.098;13.770;2024-02-21T01:40:38;21.80;64.60
65752;DHT22;52486;51.098;13.770;2024-02-21T01:43:03;21.40;64.60
65752;DHT22;52486;51.098;13.770;2024-02-21T01:45:29;24.60;66.40
65752;DHT22;52486;51.098;13.770;2024-02-21T01:47:55;21.90;65.00
65752;DHT22;52486;51.098;13.770;2024-02-21T01:50:20;21.70;64.80
65752;DHT22;52486;51.098;13.770;2024-02-21T01:52:47;24.10;66.10
65752;DHT22;52486;51.098;13.770;2024-02-21T01:55:14;21.80;64.80
65752;DHT22;52486;51.098;13.770;2024-02-21T01:57:40;22.10;64.80
65752;DHT22;52486;51.098;13.770;2024-02-21T02:00:06;21.70;64.80
65752;DHT22;52486;51.098;13.770;2024-02-21T02:02:32;21.70;63.90
65752;DHT22;52486;51.098;13.770;2024-02-21T02:04:57;21.80;64.90
65752;DHT22;52486;51.098;13.770;2024-02-21T02:07:23;21.60;64.80
65752;DHT22;52486;51.098;13.770;2024-02-21T02:09:49;22.00;65.00
65752;DHT22;52486;51.098;13.770;2024-02-21T02:12:14;21.80;64.90
65752;DHT22;52486;51.098;13.770;2024-02-21T02:14:40;22.00;64.60
65752;DHT22;52486;51.098;13.770;2024-02-21T02:17:06;21.60;64.90
65752;DHT22;52486;51.098;13.770;2024-02-21T02:19:31;21.70;64.30
65752;DHT22;52486;51.098;13.770;2024-02-21T02:22:00;21.60;64.30
65752;DHT22;52486;51.098;13.770;2024-02-21T02:24:28;22.10;65.20
65752;DHT22;52486;51.098;13.770;2024-02-21T02:26:54;21.60;65.10
65752;DHT22;52486;51.098;13.770;2024-02-21T02:29:19;21.50;65.00
65752;DHT22;52486;51.098;13.770;2024-02-21T02:31:45;21.60;65.10
65752;DHT22;52486;51.098;13.770;2024-02-21T02:34:10;21.70;65.10
65752;DHT22;52486;51.098;13.770;2024-02-21T02:36:36;21.60;65.10
65752;DHT22;52486;51.098;13.770;2024-02-21T02:39:01;21.80;65.30
65752;DHT22;52486;51.098;13.770;2024-02-21T02:41:27;21.70;65.30
65752;DHT22;52486;51.098;13.770;2024-02-21T02:43:52;24.20;66.70
65752;DHT22;52486;51.098;13.770;2024-02-21T02:46:18;23.10;66.00
65752;DHT22;52486;51.098;13.770;2024-02-21T02:48:43;21.70;65.30
65752;DHT22;52486;51.098;13.770;2024-02-21T02:51:10;21.40;65.00
65752;DHT22;52486;51.098;13.770;2024-02-21T02:53:35;21.70;65.40
65752;DHT22;52486;51.098;13.770;2024-02-21T02:56:01;21.80;65.60
65752;DHT22;52486;51.098;13.770;2024-02-21T02:58:26;21.80;65.60
65752;DHT22;52486;51.098;13.770;2024-02-21T03:00:52;22.80;66.20
65752;DHT22;52486;51.098;13.770;2024-02-21T03:03:17;24.40;67.10
65752;DHT22;52486;51.098;13.770;2024-02-21T03:05:43;21.60;64.70
65752;DHT22;52486;51.098;13.770;2024-02-21T03:08:09;21.70;65.40
65752;DHT22;52486;51.098;13.770;2024-02-21T03:10:35;21.60;65.30
65752;DHT22;52486;51.098;13.770;2024-02-21T03:13:00;21.70;64.80
65752;DHT22;52486;51.098;13.770;2024-02-21T03:15:26;21.60;65.30
65752;DHT22;52486;51.098;13.770;2024-02-21T03:17:52;21.50;65.20
65752;DHT22;52486;51.098;13.770;2024-02-21T03:20:17;21.40;65.30
65752;DHT22;52486;51.098;13.770;2024-02-21T03:22:45;21.60;65.00
65752;DHT22;52486;51.098;13.770;2024-02-21T03:25:10;21.40;65.50
65752;DHT22;52486;51.098;13.770;2024-02-21T03:27:36;21.50;65.30
65752;DHT22;52486;51.098;13.770;2024-02-21T03:30:02;21.70;65.60
65752;DHT22;52486;51.098;13.770;2024-02-21T03:32:27;21.50;65.20
65752;DHT22;52486;51.098;13.770;2024-02-21T03:34:53;21.60;66.20
65752;DHT22;52486;51.098;13.770;2024-02-21T03:37:20;21.50;64.90
65752;DHT22;52486;51.098;13.770;2024-02-21T03:39:45;21.90;65.90
65752;DHT22;52486;51.098;13.770;2024-02-21T03:42:11;23.40;66.70
65752;DHT22;52486;51.098;13.770;2024-02-21T03:44:36;24.30;67.00
65752;DHT22;52486;51.098;13.770;2024-02-21T03:47:02;21.70;65.10
65752;DHT22;52486;51.098;13.770;2024-02-21T03:49:27;21.50;65.70
65752;DHT22;52486;51.098;13.770;2024-02-21T03:51:54;24.30;67.20
65752;DHT22;52486;51.098;13.770;2024-02-21T03:54:19;21.70;65.60
65752;DHT22;52486;51.098;13.770;2024-02-21T03:56:45;21.50;65.70
65752;DHT22;52486;51.098;13.770;2024-02-21T03:59:13;21.60;65.00
65752;DHT22;52486;51.098;13.770;2024-02-21T04:01:38;21.50;65.50
65752;DHT22;52486;51.098;13.770;2024-02-21T04:04:04;22.00;65.90
65752;DHT22;52486;51.098;13.770;2024-02-21T04:06:29;21.50;65.00
65752;DHT22;52486;51.098;13.770;2024-02-21T04:08:55;21.70;65.80
65752;DHT22;52486;51.098;13.770;2024-02-21T04:11:20;21.50;65.50
65752;DHT22;52486;51.098;13.770;2024-02-21T04:13:46;21.80;65.90
65752;DHT22;52486;51.098;13.770;2024-02-21T04:16:14;21.40;65.40
65752;DHT22;52486;51.098;13.770;2024-02-21T04:18:39;21.50;66.30
65752;DHT22;52486;51.098;13.770;2024-02-21T04:21:05;24.00;67.20
65752;DHT22;52486;51.098;13.770;2024-02-21T04:23:31;21.50;65.80
65752;DHT22;52486;51.098;13.770;2024-02-21T04:25:56;21.60;65.80
65752;DHT22;52486;51.098;13.770;2024-02-21T04:28:21;21.40;65.10
65752;DHT22;52486;51.098;13.770;2024-02-21T04:30:47;21.50;65.80
65752;DHT22;52486;51.098;13.770;2024-02-21T04:33:12;21.40;65.00
65752;DHT22;52486;51.098;13.770;2024-02-21T04:35:38;21.50;65.80
65752;DHT22;52486;51.098;13.770;2024-02-21T04:38:04;21.40;65.60
65752;DHT22;52486;51.098;13.770;2024-02-21T04:40:30;21.50;65.80
65752;DHT22;52486;51.098;13.770;2024-02-21T04:42:56;21.80;65.70
65752;DHT22;52486;51.098;13.770;2024-02-21T04:45:22;21.50;65.70
65752;DHT22;52486;51.098;13.770;2024-02-21T04:47:47;21.50;65.70
65752;DHT22;52486;51.098;13.770;2024-02-21T04:50:13;21.60;65.80
65752;DHT22;52486;51.098;13.770;2024-02-21T04:52:38;21.40;65.70
65752;DHT22;52486;51.098;13.770;2024-02-21T04:55:04;21.50;65.20
65752;DHT22;52486;51.098;13.770;2024-02-21T04:57:29;21.40;65.70
65752;DHT22;52486;51.098;13.770;2024-02-21T04:59:55;21.50;65.90
65752;DHT22;52486;51.098;13.770;2024-02-21T05:02:20;21.60;65.90
65752;DHT22;52486;51.098;13.770;2024-02-21T05:04:47;21.40;65.70
65752;DHT22;52486;51.098;13.770;2024-02-21T05:07:13;21.40;65.80
65752;DHT22;52486;51.098;13.770;2024-02-21T05:09:38;24.40;67.60
65752;DHT22;52486;51.098;13.770;2024-02-21T05:12:04;21.30;65.10
65752;DHT22;52486;51.098;13.770;2024-02-21T05:14:29;21.60;65.70
65752;DHT22;52486;51.098;13.770;2024-02-21T05:16:55;21.50;65.30
65752;DHT22;52486;51.098;13.770;2024-02-21T05:19:20;21.70;66.20
65752;DHT22;52486;51.098;13.770;2024-02-21T05:21:46;21.50;66.00
65752;DHT22;52486;51.098;13.770;2024-02-21T05:24:12;24.10;67.50
65752;DHT22;52486;51.098;13.770;2024-02-21T05:26:37;21.20;65.80
65752;DHT22;52486;51.098;13.770;2024-02-21T05:29:03;21.50;66.00
65752;DHT22;52486;51.098;13.770;2024-02-21T05:34:13;21.40;63.60
65752;DHT22;52486;51.098;13.770;2024-02-21T05:36:38;21.40;65.40
65752;DHT22;52486;51.098;13.770;2024-02-21T05:39:04;18.90;64.70
65752;DHT22;52486;51.098;13.770;2024-02-21T05:41:29;23.70;67.30
65752;DHT22;52486;51.098;13.770;2024-02-21T05:43:55;21.50;65.50
65752;DHT22;52486;51.098;13.770;2024-02-21T05:46:20;21.80;66.30
65752;DHT22;52486;51.098;13.770;2024-02-21T05:48:46;21.40;66.10
65752;DHT22;52486;51.098;13.770;2024-02-21T05:51:11;22.10;66.40
65752;DHT22;52486;51.098;13.770;2024-02-21T05:53:37;21.40;66.20
65752;DHT22;52486;51.098;13.770;2024-02-21T05:56:09;21.60;66.00
65752;DHT22;52486;51.098;13.770;2024-02-21T05:58:35;21.40;66.00
65752;DHT22;52486;51.098;13.770;2024-02-21T06:01:00;21.20;65.40
65752;DHT22;52486;51.098;13.770;2024-02-21T06:03:29;21.70;66.10
65752;DHT22;52486;51.098;13.770;2024-02-21T06:05:54;21.40;66.10
65752;DHT22;52486;51.098;13.770;2024-02-21T06:08:20;21.40;65.60
65752;DHT22;52486;51.098;13.770;2024-02-21T06:10:45;21.50;65.60
65752;DHT22;52486;51.098;13.770;2024-02-21T06:13:11;21.50;66.30
65752;DHT22;52486;51.098;13.770;2024-02-21T06:15:36;22.40;67.50
65752;DHT22;52486;51.098;13.770;2024-02-21T06:18:02;21.40;65.60
65752;DHT22;52486;51.098;13.770;2024-02-21T06:20:27;21.40;65.50
65752;DHT22;52486;51.098;13.770;2024-02-21T06:22:53;21.20;65.50
65752;DHT22;52486;51.098;13.770;2024-02-21T06:25:19;23.80;67.50
65752;DHT22;52486;51.098;13.770;2024-02-21T06:27:44;21.30;65.50
65752;DHT22;52486;51.098;13.770;2024-02-21T06:30:10;21.40;66.20
65752;DHT22;52486;51.098;13.770;2024-02-21T06:32:36;21.30;65.60
65752;DHT22;52486;51.098;13.770;2024-02-21T06:35:01;21.50;66.20
65752;DHT22;52486;51.098;13.770;2024-02-21T06:37:27;21.30;65.50
65752;DHT22;52486;51.098;13.770;2024-02-21T06:39:52;21.20;65.90
65752;DHT22;52486;51.098;13.770;2024-02-21T06:42:18;21.40;66.20
65752;DHT22;52486;51.098;13.770;2024-02-21T06:44:44;21.40;65.80
65752;DHT22;52486;51.098;13.770;2024-02-21T06:47:10;21.50;66.20
65752;DHT22;52486;51.098;13.770;2024-02-21T06:49:35;21.40;65.60
65752;DHT22;52486;51.098;13.770;2024-02-21T06:52:04;22.40;64.80
65752;DHT22;52486;51.098;13.770;2024-02-21T06:54:30;21.40;65.90
65752;DHT22;52486;51.098;13.770;2024-02-21T06:56:56;21.50;66.20
65752;DHT22;52486;51.098;13.770;2024-02-21T06:59:21;21.60;66.40
65752;DHT22;52486;51.098;13.770;2024-02-21T07:01:47;23.60;67.60
65752;DHT22;52486;51.098;13.770;2024-02-21T07:04:13;21.40;66.30
65752;DHT22;52486;51.098;13.770;2024-02-21T07:06:39;21.50;66.40
65752;DHT22;52486;51.098;13.770;2024-02-21T07:09:04;21.50;66.50
65752;DHT22;52486;51.098;13.770;2024-02-21T07:11:30;21.80;66.70
65752;DHT22;52486;51.098;13.770;2024-02-21T07:13:55;21.10;66.30
65752;DHT22;52486;51.098;13.770;2024-02-21T07:16:21;21.20;66.50
65752;DHT22;52486;51.098;13.770;2024-02-21T07:18:46;21.50;66.90
65752;DHT22;52486;51.098;13.770;2024-02-21T07:21:12;21.30;67.20
65752;DHT22;52486;51.098;13.770;2024-02-21T07:23:40;21.40;67.50
65752;DHT22;52486;51.098;13.770;2024-02-21T07:26:05;21.30;66.70
65752;DHT22;52486;51.098;13.770;2024-02-21T07:28:31;21.50;67.40
65752;DHT22;52486;51.098;13.770;2024-02-21T07:30:58;21.30;67.60
65752;DHT22;52486;51.098;13.770;2024-02-21T07:33:24;21.70;67.90
65752;DHT22;52486;51.098;13.770;2024-02-21T07:35:49;21.70;68.00
65752;DHT22;52486;51.098;13.770;2024-02-21T07:38:14;21.70;67.10
65752;DHT22;52486;51.098;13.770;2024-02-21T07:40:40;22.20;68.00
65752;DHT22;52486;51.098;13.770;2024-02-21T07:43:05;21.70;68.00
65752;DHT22;52486;51.098;13.770;2024-02-21T07:45:31;21.80;67.50
65752;DHT22;52486;51.098;13.770;2024-02-21T07:47:57;22.90;68.70
65752;DHT22;52486;51.098;13.770;2024-02-21T07:50:22;21.90;68.20
65752;DHT22;52486;51.098;13.770;2024-02-21T07:52:47;22.30;68.20
65752;DHT22;52486;51.098;13.770;2024-02-21T07:55:13;22.10;67.80
65752;DHT22;52486;51.098;13.770;2024-02-21T07:57:39;21.90;67.00
65752;DHT22;52486;51.098;13.770;2024-02-21T08:00:04;21.90;67.50
65752;DHT22;52486;51.098;13.770;2024-02-21T08:02:30;22.00;66.90
65752;DHT22;52486;51.098;13.770;2024-02-21T08:04:55;22.00;67.40
65752;DHT22;52486;51.098;13.770;2024-02-21T08:07:21;24.00;68.30
65752;DHT22;52486;51.098;13.770;2024-02-21T08:09:46;22.30;68.40
65752;DHT22;52486;51.098;13.770;2024-02-21T08:12:12;22.40;67.30
65752;DHT22;52486;51.098;13.770;2024-02-21T08:14:37;22.20;67.00
65752;DHT22;52486;51.098;13.770;2024-02-21T08:17:03;24.90;68.40
65752;DHT22;52486;51.098;13.770;2024-02-21T08:19:29;22.40;66.50
65752;DHT22;52486;51.098;13.770;2024-02-21T08:21:58;22.30;66.90
65752;DHT22;52486;51.098;13.770;2024-02-21T08:24:23;22.40;64.70
65752;DHT22;52486;51.098;13.770;2024-02-21T08:26:49;22.10;66.20
65752;DHT22;52486;51.098;13.770;2024-02-21T08:29:15;23.10;67.30
65752;DHT22;52486;51.098;13.770;2024-02-21T08:31:40;22.50;66.20
65752;DHT22;52486;51.098;13.770;2024-02-21T08:34:06;22.50;66.90
65752;DHT22;52486;51.098;13.770;2024-02-21T08:36:32;22.50;66.80
65752;DHT22;52486;51.098;13.770;2024-02-21T08:38:58;22.50;66.40
65752;DHT22;52486;51.098;13.770;2024-02-21T08:41:23;22.90;66.70
65752;DHT22;52486;51.098;13.770;2024-02-21T08:43:53;22.50;66.40
65752;DHT22;52486;51.098;13.770;2024-02-21T08:46:22;22.50;64.20
65752;DHT22;52486;51.098;13.770;2024-02-21T08:48:52;23.20;66.90
65752;DHT22;52486;51.098;13.770;2024-02-21T08:51:18;23.70;66.90
65752;DHT22;52486;51.098;13.770;2024-02-21T08:53:44;22.70;66.80
65752;DHT22;52486;51.098;13.770;2024-02-21T08:56:10;23.40;67.00
65752;DHT22;52486;51.098;13.770;2024-02-21T08:58:36;22.60;66.20
65752;DHT22;52486;51.098;13.770;2024-02-21T09:01:05;24.20;67.70
65752;DHT22;52486;51.098;13.770;2024-02-21T09:03:34;22.80;66.30
65752;DHT22;52486;51.098;13.770;2024-02-21T09:05:59;22.60;66.30
65752;DHT22;52486;51.098;13.770;2024-02-21T09:08:25;22.80;66.40
65752;DHT22;52486;51.098;13.770;2024-02-21T09:10:51;22.60;66.10
65752;DHT22;52486;51.098;13.770;2024-02-21T09:13:17;22.50;66.30
65752;DHT22;52486;51.098;13.770;2024-02-21T09:15:42;22.60;66.20
65752;DHT22;52486;51.098;13.770;2024-02-21T09:18:08;22.90;66.50
65752;DHT22;52486;51.098;13.770;2024-02-21T09:20:33;22.80;66.60
65752;DHT22;52486;51.098;13.770;2024-02-21T09:22:59;25.70;68.20
65752;DHT22;52486;51.098;13.770;2024-02-21T09:25:24;22.90;66.60
65752;DHT22;52486;51.098;13.770;2024-02-21T09:27:50;22.70;66.60
65752;DHT22;52486;51.098;13.770;2024-02-21T09:30:17;22.70;66.60
65752;DHT22;52486;51.098;13.770;2024-02-21T09:32:42;22.90;67.30
65752;DHT22;52486;51.098;13.770;2024-02-21T09:35:08;22.90;66.80
65752;DHT22;52486;51.098;13.770;2024-02-21T09:37:33;22.80;66.60
65752;DHT22;52486;51.098;13.770;2024-02-21T09:39:59;22.70;67.10
65752;DHT22;52486;51.098;13.770;2024-02-21T09:42:28;23.00;66.70
65752;DHT22;52486;51.098;13.770;2024-02-21T09:44:56;22.70;66.60
65752;DHT22;52486;51.098;13.770;2024-02-21T09:47:25;22.80;66.90
65752;DHT22;52486;51.098;13.770;2024-02-21T09:49:53;22.80;64.30
65752;DHT22;52486;51.098;13.770;2024-02-21T09:52:19;22.60;66.60
65752;DHT22;52486;51.098;13.770;2024-02-21T09:54:45;22.70;66.60
65752;DHT22;52486;51.098;13.770;2024-02-21T09:57:12;22.80;66.60
65752;DHT22;52486;51.098;13.770;2024-02-21T09:59:38;22.70;66.70
65752;DHT22;52486;51.098;13.770;2024-02-21T10:02:04;23.80;67.30
65752;DHT22;52486;51.098;13.770;2024-02-21T10:04:30;22.80;66.70
65752;DHT22;52486;51.098;13.770;2024-02-21T10:06:56;23.70;67.50
65752;DHT22;52486;51.098;13.770;2024-02-21T10:09:25;22.90;66.70
65752;DHT22;52486;51.098;13.770;2024-02-21T10:11:53;22.70;64.30
65752;DHT22;52486;51.098;13.770;2024-02-21T10:14:18;23.00;66.80
65752;DHT22;52486;51.098;13.770;2024-02-21T10:16:48;22.80;66.10
65752;DHT22;52486;51.098;13.770;2024-02-21T10:19:20;22.80;64.30
65752;DHT22;52486;51.098;13.770;2024-02-21T10:21:59;22.80;64.20
65752;DHT22;52486;51.098;13.770;2024-02-21T10:24:27;23.00;64.50
65752;DHT22;52486;51.098;13.770;2024-02-21T10:27:01;22.80;64.20
65752;DHT22;52486;51.098;13.770;2024-02-21T10:29:29;22.90;64.40
65752;DHT22;52486;51.098;13.770;2024-02-21T10:32:03;22.90;67.10
65752;DHT22;52486;51.098;13.770;2024-02-21T10:34:29;23.00;66.70
65752;DHT22;52486;51.098;13.770;2024-02-21T10:36:59;22.90;67.00
65752;DHT22;52486;51.098;13.770;2024-02-21T10:39:25;25.60;68.20
65752;DHT22;52486;51.098;13.770;2024-02-21T10:41:50;23.10;66.90
65752;DHT22;52486;51.098;13.770;2024-02-21T10:44:16;22.90;66.80
65752;DHT22;52486;51.098;13.770;2024-02-21T10:46:42;23.00;66.90
65752;DHT22;52486;51.098;13.770;2024-02-21T10:49:14;22.90;66.90
65752;DHT22;52486;51.098;13.770;2024-02-21T10:51:43;22.90;64.40
65752;DHT22;52486;51.098;13.770;2024-02-21T10:54:13;23.10;66.90
65752;DHT22;52486;51.098;13.770;2024-02-21T10:56:43;22.90;64.50
65752;DHT22;52486;51.098;13.770;2024-02-21T10:59:09;24.10;67.50
65752;DHT22;52486;51.098;13.770;2024-02-21T11:01:35;25.40;68.30
65752;DHT22;52486;51.098;13.770;2024-02-21T11:04:19;22.90;66.20
65752;DHT22;52486;51.098;13.770;2024-02-21T11:06:44;23.00;64.60
65752;DHT22;52486;51.098;13.770;2024-02-21T11:09:10;23.00;66.80
65752;DHT22;52486;51.098;13.770;2024-02-21T11:11:39;25.70;68.60
65752;DHT22;52486;51.098;13.770;2024-02-21T11:14:05;24.50;67.60
65752;DHT22;52486;51.098;13.770;2024-02-21T11:16:34;23.10;66.80
65752;DHT22;52486;51.098;13.770;2024-02-21T11:19:10;23.00;66.80
65752;DHT22;52486;51.098;13.770;2024-02-21T11:21:44;22.90;64.30
65752;DHT22;52486;51.098;13.770;2024-02-21T11:24:09;22.90;66.80
65752;DHT22;52486;51.098;13.770;2024-02-21T11:26:36;22.90;66.70
65752;DHT22;52486;51.098;13.770;2024-02-21T11:29:02;23.00;66.80
65752;DHT22;52486;51.098;13.770;2024-02-21T11:31:39;25.20;67.90
65752;DHT22;52486;51.098;13.770;2024-02-21T11:34:08;22.90;64.50
65752;DHT22;52486;51.098;13.770;2024-02-21T11:36:33;22.80;66.20
65752;DHT22;52486;51.098;13.770;2024-02-21T11:39:05;22.80;67.00
65752;DHT22;52486;51.098;13.770;2024-02-21T11:41:31;22.90;64.60
65752;DHT22;52486;51.098;13.770;2024-02-21T11:43:57;24.20;68.50
65752;DHT22;52486;51.098;13.770;2024-02-21T11:46:22;22.80;66.60
65752;DHT22;52486;51.098;13.770;2024-02-21T11:48:48;23.00;67.40
65752;DHT22;52486;51.098;13.770;2024-02-21T11:51:22;23.00;67.40
65752;DHT22;52486;51.098;13.770;2024-02-21T11:53:50;22.80;64.90
65752;DHT22;52486;51.098;13.770;2024-02-21T11:56:16;22.90;66.80
65752;DHT22;52486;51.098;13.770;2024-02-21T11:58:41;23.40;68.00
65752;DHT22;52486;51.098;13.770;2024-02-21T12:01:08;23.00;67.50
65752;DHT22;52486;51.098;13.770;2024-02-21T12:03:33;23.20;67.80
65752;DHT22;52486;51.098;13.770;2024-02-21T12:06:02;22.90;65.70
65752;DHT22;52486;51.098;13.770;2024-02-21T12:08:40;22.80;67.30
65752;DHT22;52486;51.098;13.770;2024-02-21T12:11:15;22.80;67.30
65752;DHT22;52486;51.098;13.770;2024-02-21T12:13:41;22.90;67.70
65752;DHT22;52486;51.098;13.770;2024-02-21T12:16:06;23.10;67.70
65752;DHT22;52486;51.098;13.770;2024-02-21T12:18:32;23.00;67.70
65752;DHT22;52486;51.098;13.770;2024-02-21T12:20:58;22.80;68.20
65752;DHT22;52486;51.098;13.770;2024-02-21T12:23:26;23.00;68.30
65752;DHT22;52486;51.098;13.770;2024-02-21T12:25:52;23.00;68.30
65752;DHT22;52486;51.098;13.770;2024-02-21T12:28:19;23.20;68.40
65752;DHT22;52486;51.098;13.770;2024-02-21T12:30:45;23.10;68.10
65752;DHT22;52486;51.098;13.770;2024-02-21T12:33:10;23.20;68.10
65752;DHT22;52486;51.098;13.770;2024-02-21T12:35:36;23.10;68.90
65752;DHT22;52486;51.098;13.770;2024-02-21T12:38:01;23.50;69.20
65752;DHT22;52486;51.098;13.770;2024-02-21T12:40:27;23.40;68.60
65752;DHT22;52486;51.098;13.770;2024-02-21T12:43:00;23.10;64.40
65752;DHT22;52486;51.098;13.770;2024-02-21T12:45:28;22.90;61.60
65752;DHT22;52486;51.098;13.770;2024-02-21T12:47:53;22.70;62.30
65752;DHT22;52486;51.098;13.770;2024-02-21T12:50:19;22.90;62.30
65752;DHT22;52486;51.098;13.770;2024-02-21T12:52:45;21.80;59.80
65752;DHT22;52486;51.098;13.770;2024-02-21T12:55:11;20.70;63.70
65752;DHT22;52486;51.098;13.770;2024-02-21T12:57:38;20.60;65.30
65752;DHT22;52486;51.098;13.770;2024-02-21T13:00:06;20.70;65.00
65752;DHT22;52486;51.098;13.770;2024-02-21T13:02:37;20.70;62.70
65752;DHT22;52486;51.098;13.770;2024-02-21T13:05:02;21.10;62.80
65752;DHT22;52486;51.098;13.770;2024-02-21T13:07:28;21.20;65.20
65752;DHT22;52486;51.098;13.770;2024-02-21T13:09:54;21.40;64.40
65752;DHT22;52486;51.098;13.770;2024-02-21T13:12:19;21.70;64.30
65752;DHT22;52486;51.098;13.770;2024-02-21T13:14:45;22.80;64.30
65752;DHT22;52486;51.098;13.770;2024-02-21T13:17:11;22.20;63.30
65752;DHT22;52486;51.098;13.770;2024-02-21T13:19:36;24.50;64.10
65752;DHT22;52486;51.098;13.770;2024-02-21T13:22:02;22.60;62.90
65752;DHT22;52486;51.098;13.770;2024-02-21T13:24:27;23.50;62.90
65752;DHT22;52486;51.098;13.770;2024-02-21T13:26:53;23.70;62.20
65752;DHT22;52486;51.098;13.770;2024-02-21T13:29:19;22.50;60.90
65752;DHT22;52486;51.098;13.770;2024-02-21T13:31:45;22.50;60.80
65752;DHT22;52486;51.098;13.770;2024-02-21T13:34:11;22.80;60.20
65752;DHT22;52486;51.098;13.770;2024-02-21T13:36:36;22.50;61.10
65752;DHT22;52486;51.098;13.770;2024-02-21T13:39:02;22.80;62.20
65752;DHT22;52486;51.098;13.770;2024-02-21T13:41:30;23.10;61.40
65752;DHT22;52486;51.098;13.770;2024-02-21T13:43:56;24.20;61.50
65752;DHT22;52486;51.098;13.770;2024-02-21T13:46:21;23.00;60.70
65752;DHT22;52486;51.098;13.770;2024-02-21T13:48:47;23.30;60.30
65752;DHT22;52486;51.098;13.770;2024-02-21T13:51:13;23.30;60.70
65752;DHT22;52486;51.098;13.770;2024-02-21T13:53:38;23.20;59.80
65752;DHT22;52486;51.098;13.770;2024-02-21T13:56:04;23.20;60.10
65752;DHT22;52486;51.098;13.770;2024-02-21T13:58:29;23.40;59.80
65752;DHT22;52486;51.098;13.770;2024-02-21T14:00:55;22.80;60.80
65752;DHT22;52486;51.098;13.770;2024-02-21T14:03:21;22.70;61.70
65752;DHT22;52486;51.098;13.770;2024-02-21T14:05:47;23.00;62.50
65752;DHT22;52486;51.098;13.770;2024-02-21T14:08:14;23.20;62.00
65752;DHT22;52486;51.098;13.770;2024-02-21T14:10:40;23.40;62.30
65752;DHT22;52486;51.098;13.770;2024-02-21T14:13:05;23.40;62.50
65752;DHT22;52486;51.098;13.770;2024-02-21T14:15:31;23.20;64.00
65752;DHT22;52486;51.098;13.770;2024-02-21T14:17:56;23.50;62.80
65752;DHT22;52486;51.098;13.770;2024-02-21T14:20:22;23.60;62.50
65752;DHT22;52486;51.098;13.770;2024-02-21T14:22:47;23.80;62.30
65752;DHT22;52486;51.098;13.770;2024-02-21T14:25:13;24.10;62.00
65752;DHT22;52486;51.098;13.770;2024-02-21T14:27:40;25.40;62.40
65752;DHT22;52486;51.098;13.770;2024-02-21T14:30:06;23.90;61.10
65752;DHT22;52486;51.098;13.770;2024-02-21T14:32:35;24.10;60.00
65752;DHT22;52486;51.098;13.770;2024-02-21T14:35:01;24.70;61.10
65752;DHT22;52486;51.098;13.770;2024-02-21T14:37:26;24.00;60.10
65752;DHT22;52486;51.098;13.770;2024-02-21T14:39:52;24.10;60.10
65752;DHT22;52486;51.098;13.770;2024-02-21T14:42:17;24.20;59.90
65752;DHT22;52486;51.098;13.770;2024-02-21T14:44:43;24.10;58.90
65752;DHT22;52486;51.098;13.770;2024-02-21T14:47:09;24.50;59.70
65752;DHT22;52486;51.098;13.770;2024-02-21T14:49:34;24.50;60.00
65752;DHT22;52486;51.098;13.770;2024-02-21T14:52:00;25.50;60.40
65752;DHT22;52486;51.098;13.770;2024-02-21T14:54:25;24.60;60.30
65752;DHT22;52486;51.098;13.770;2024-02-21T14:56:51;24.40;60.10
65752;DHT22;52486;51.098;13.770;2024-02-21T14:59:17;24.20;59.50
65752;DHT22;52486;51.098;13.770;2024-02-21T15:01:42;24.30;60.50
65752;DHT22;52486;51.098;13.770;2024-02-21T15:04:08;24.50;60.50
65752;DHT22;52486;51.098;13.770;2024-02-21T15:06:33;24.70;59.80
65752;DHT22;52486;51.098;13.770;2024-02-21T15:09:01;24.40;59.90
65752;DHT22;52486;51.098;13.770;2024-02-21T15:11:28;24.40;58.90